Time;durP1;ratioP1;P1;durP2;ratioP2;P2;SDS_P1;SDS_P2;PMS_P1;PMS_P2;Temp;Humidity;BMP_temperature;BMP_pressure;BME280_temperature;BME280_humidity;BME280_pressure;Samples;Min_cycle;Max_cycle;Signal;HPM_P1;HPM_P2
2021/05/11 04:16:39;;;;;;;27.20;17.60;;;;;;;12.65;86.95;97952.97;5467486;23;20320;-70
2021/05/11 04:19:03;;;;;;;24.88;16.02;;;;;;;12.81;86.45;97958.41;4898280;29;20387;-69
2021/05/11 04:21:29;;;;;;;22.85;15.35;;;;;;;12.65;86.75;97952.13;4898405;29;20116;-70
2021/05/11 04:23:55;;;;;;;24.85;15.27;;;;;;;12.80;87.14;97941.13;4898386;29;20037;-70
2021/05/11 04:26:22;;;;;;;22.75;14.70;;;;;;;13.05;85.12;97936.63;4898240;29;20028;-69
2021/05/11 04:28:48;;;;;;;19.90;13.55;;;;;;;13.26;84.09;97921.06;4898662;29;20036;-72
2021/05/11 04:31:14;;;;;;;17.73;12.90;;;;;;;13.21;84.12;97930.78;4898180;29;20021;-72
2021/05/11 04:33:39;;;;;;;17.92;12.90;;;;;;;13.24;83.64;97928.06;4898005;29;20043;-72
2021/05/11 04:36:06;;;;;;;19.80;14.65;;;;;;;13.04;84.11;97934.06;4898053;29;20470;-72
2021/05/11 04:38:31;;;;;;;23.05;14.77;;;;;;;12.68;86.00;97926.03;4898143;29;20392;-72
2021/05/11 04:40:57;;;;;;;19.25;14.15;;;;;;;12.87;85.62;97932.19;4867520;29;20049;-72
2021/05/11 04:43:27;;;;;;;19.67;14.00;;;;;;;12.82;85.42;97939.31;4897967;29;20497;-73
2021/05/11 04:46:06;;;;;;;21.98;15.40;;;;;;;12.93;84.99;97928.47;4897932;29;20125;-73
2021/05/11 04:48:31;;;;;;;18.10;13.32;;;;;;;12.86;85.75;97930.47;4898009;29;20108;-72
2021/05/11 04:50:57;;;;;;;21.85;14.70;;;;;;;12.86;85.79;97938.25;4897968;29;20107;-73
2021/05/11 04:53:23;;;;;;;19.58;13.48;;;;;;;13.05;85.03;97926.22;4897785;29;20083;-73
2021/05/11 04:55:49;;;;;;;24.23;14.60;;;;;;;13.15;84.10;97929.28;4897654;29;20264;-73
2021/05/11 04:58:14;;;;;;;22.33;14.60;;;;;;;13.25;84.24;97937.59;4896704;29;20027;-73
2021/05/11 05:00:40;;;;;;;21.65;14.52;;;;;;;13.25;83.91;97927.19;4897704;29;20063;-72
2021/05/11 05:03:08;;;;;;;23.33;15.13;;;;;;;13.19;84.38;97927.38;4897515;29;20029;-73
2021/05/11 05:05:33;;;;;;;22.80;15.52;;;;;;;13.00;85.02;97950.69;4897442;29;20029;-73
2021/05/11 05:07:59;;;;;;;21.73;14.65;;;;;;;13.25;83.97;97948.00;4897397;29;20120;-73
2021/05/11 05:10:24;;;;;;;22.83;15.38;;;;;;;13.28;84.09;97958.25;4897548;29;20144;-73
2021/05/11 05:12:49;;;;;;;23.05;15.70;;;;;;;13.34;83.84;97947.56;4897394;29;20069;-73
2021/05/11 05:15:15;;;;;;;24.55;16.02;;;;;;;13.21;84.24;97951.59;4897306;29;20056;-73
2021/05/11 05:17:41;;;;;;;22.70;16.05;;;;;;;13.11;84.86;97951.13;4897253;29;20176;-73
2021/05/11 05:20:07;;;;;;;22.85;15.00;;;;;;;13.16;84.09;97945.72;4897410;29;20103;-73
2021/05/11 05:22:32;;;;;;;21.92;14.63;;;;;;;13.19;84.55;97943.81;4897251;29;20107;-73
2021/05/11 05:25:00;;;;;;;19.00;13.73;;;;;;;13.34;83.36;97937.16;4897334;29;20390;-73
2021/05/11 05:27:43;;;;;;;20.08;14.18;;;;;;;13.18;83.48;97930.91;4895756;29;20035;-73
2021/05/11 05:30:09;;;;;;;19.08;13.93;;;;;;;12.98;84.64;97921.31;4897249;29;20048;-72
2021/05/11 05:32:34;;;;;;;18.42;13.88;;;;;;;13.08;84.30;97920.88;4897080;29;20057;-73
2021/05/11 05:35:00;;;;;;;20.13;14.75;;;;;;;12.97;84.57;97928.28;4897183;29;20036;-73
2021/05/11 05:37:25;;;;;;;26.42;15.27;;;;;;;13.02;84.89;97941.94;4896899;29;20039;-73
2021/05/11 05:39:55;;;;;;;23.98;16.10;;;;;;;13.12;84.56;97952.81;4897051;29;20570;-73
2021/05/11 05:42:20;;;;;;;27.80;16.65;;;;;;;13.12;84.10;97943.25;4897193;29;20025;-73
2021/05/11 05:44:46;;;;;;;23.13;15.32;;;;;;;13.04;84.60;97940.13;4897083;29;20028;-73
2021/05/11 05:47:11;;;;;;;23.52;15.98;;;;;;;13.20;83.98;97934.25;4896849;29;20415;-73
2021/05/11 05:49:45;;;;;;;21.15;15.02;;;;;;;12.88;85.74;97933.03;4895733;29;20092;-74
2021/05/11 05:52:17;;;;;;;19.08;14.00;;;;;;;13.18;84.23;97936.09;4897019;29;20033;-73
2021/05/11 05:54:44;;;;;;;22.50;15.40;;;;;;;13.29;83.30;97939.13;4897132;29;20032;-74
2021/05/11 05:57:09;;;;;;;19.63;13.88;;;;;;;13.32;83.01;97942.44;4896875;29;20406;-73
2021/05/11 05:59:39;;;;;;;22.20;15.10;;;;;;;13.25;82.97;97942.78;4896880;29;20108;-73
2021/05/11 06:02:04;;;;;;;20.88;14.30;;;;;;;13.46;83.33;97941.84;4897384;29;20112;-73
2021/05/11 06:04:30;;;;;;;25.27;15.60;;;;;;;13.55;82.55;97951.88;4875012;29;20032;-73
2021/05/11 06:06:55;;;;;;;21.25;14.30;;;;;;;13.20;83.74;97949.88;4891771;29;20027;-73
2021/05/11 06:09:21;;;;;;;21.17;14.23;;;;;;;13.48;82.74;97958.22;4899113;29;20033;-73
2021/05/11 06:11:54;;;;;;;18.33;12.82;;;;;;;13.52;82.36;97962.41;4899705;29;20067;-73
2021/05/11 06:19:34;;;;;;;20.95;14.35;;;;;;;13.51;82.39;97945.09;4900437;29;20111;-73
2021/05/11 06:21:59;;;;;;;19.13;13.57;;;;;;;13.44;82.25;97933.28;4899937;29;20108;-73
2021/05/11 06:24:25;;;;;;;20.20;13.88;;;;;;;13.47;82.46;97938.34;4899770;29;20028;-73
2021/05/11 06:26:51;;;;;;;21.02;14.15;;;;;;;13.41;82.93;97942.97;4900191;29;20389;-73
2021/05/11 06:29:18;;;;;;;19.85;13.35;;;;;;;13.31;83.57;97937.31;4900537;29;20455;-73
2021/05/11 06:31:44;;;;;;;20.00;14.05;;;;;;;13.49;83.32;97931.31;4900153;29;20032;-73
2021/05/11 06:34:10;;;;;;;23.85;14.30;;;;;;;13.49;83.26;97935.66;4899413;29;20040;-73
2021/05/11 06:36:36;;;;;;;25.73;14.88;;;;;;;13.51;82.50;97931.25;4899669;29;20032;-73
2021/05/11 06:39:06;;;;;;;21.20;14.65;;;;;;;13.50;83.15;97920.00;4900144;29;20028;-73
2021/05/11 06:41:32;;;;;;;22.73;16.38;;;;;;;13.51;82.92;97913.88;4900142;29;20028;-73
2021/05/11 06:44:03;;;;;;;25.75;17.05;;;;;;;13.62;82.81;97924.66;4900044;29;20533;-73
2021/05/11 06:49:26;;;;;;;27.52;18.13;;;;;;;13.78;81.92;97931.78;4900040;29;20040;-73
2021/05/11 06:54:38;;;;;;;23.83;14.23;;;;;;;13.71;81.37;97940.78;4900138;29;20035;-73
2021/05/11 06:57:04;;;;;;;23.70;15.85;;;;;;;13.79;81.66;97939.53;4899023;29;20039;-73
2021/05/11 06:59:29;;;;;;;21.77;15.60;;;;;;;13.66;81.77;97934.94;4899397;29;20398;-74
2021/05/11 07:01:54;;;;;;;30.55;19.52;;;;;;;13.89;81.61;97932.16;4899683;29;20025;-73
2021/05/11 07:04:20;;;;;;;25.85;17.23;;;;;;;13.93;80.70;97925.91;4899516;29;20032;-73
2021/05/11 07:06:45;;;;;;;22.05;15.77;;;;;;;13.92;81.02;97913.78;4899452;29;20044;-73
2021/05/11 07:09:14;;;;;;;24.95;15.93;;;;;;;13.12;83.74;97906.00;4898752;29;20084;-73
2021/05/11 07:14:05;;;;;;;23.40;16.42;;;;;;;13.48;83.67;97893.19;4899454;29;20082;-73
2021/05/11 07:16:30;;;;;;;22.92;15.55;;;;;;;13.71;82.22;97884.34;4899111;29;20441;-73
2021/05/11 07:18:55;;;;;;;28.48;14.98;;;;;;;13.73;81.85;97911.19;4899425;29;20390;-73
2021/05/11 07:21:21;;;;;;;24.02;15.52;;;;;;;13.78;82.20;97913.53;4897434;29;20482;-73
2021/05/11 07:23:46;;;;;;;20.00;15.23;;;;;;;13.78;81.92;97910.94;4899351;29;20040;-73
2021/05/11 07:31:07;;;;;;;15.07;11.35;;;;;;;14.12;79.83;97895.50;4899287;29;20499;-73
2021/05/11 07:33:41;;;;;;;18.73;11.10;;;;;;;14.23;78.83;97881.13;4897791;29;20491;-73
2021/05/11 07:36:07;;;;;;;13.70;11.07;;;;;;;14.23;78.64;97868.09;4898841;29;20079;-73
2021/05/11 07:38:33;;;;;;;14.52;11.10;;;;;;;14.27;78.73;97860.06;4899019;29;20123;-73
2021/05/11 07:40:59;;;;;;;17.00;11.30;;;;;;;14.18;78.67;97868.31;4899031;29;20020;-73
2021/05/11 07:43:26;;;;;;;15.13;11.93;;;;;;;14.06;79.87;97859.28;4898828;29;20035;-73
2021/05/11 07:51:30;;;;;;;11.73;9.18;;;;;;;14.33;78.59;97851.09;4898862;29;20035;-73
2021/05/11 08:15:31;;;;;;;11.45;8.70;;;;;;;15.11;74.47;97884.63;4898543;29;20051;-73
2021/05/11 08:18:13;;;;;;;13.27;8.90;;;;;;;15.11;73.87;97878.56;4897651;29;20033;-73
2021/05/11 08:23:26;;;;;;;12.43;9.40;;;;;;;15.05;75.13;97892.75;4898491;29;20116;-72
2021/05/11 08:28:37;;;;;;;9.90;7.53;;;;;;;15.03;75.00;97904.19;4898487;29;20039;-73
2021/05/11 08:31:02;;;;;;;10.75;7.97;;;;;;;15.25;73.39;97893.53;4897099;29;20029;-72
2021/05/11 08:33:28;;;;;;;8.82;7.45;;;;;;;15.31;74.20;97861.88;4898141;29;20024;-73
2021/05/11 08:35:53;;;;;;;10.02;8.13;;;;;;;15.37;73.32;97840.66;4897975;29;20478;-72
2021/05/11 08:38:18;;;;;;;11.63;8.65;;;;;;;15.45;73.34;97838.50;4880917;29;20088;-72
2021/05/11 08:40:44;;;;;;;11.20;7.93;;;;;;;15.47;73.19;97841.03;4898044;29;20100;-72
2021/05/11 08:43:27;;;;;;;11.10;9.18;;;;;;;15.56;72.42;97857.06;4896928;29;20478;-72
2021/05/11 08:45:53;;;;;;;11.90;8.02;;;;;;;15.45;73.31;97856.78;4897730;29;20068;-72
2021/05/11 08:48:18;;;;;;;10.48;7.97;;;;;;;15.36;73.31;97854.66;4897546;29;20021;-72
2021/05/11 08:50:48;;;;;;;13.93;8.18;;;;;;;15.49;72.85;97858.31;4897901;29;20599;-72
2021/05/11 09:04:37;;;;;;;8.10;7.03;;;;;;;15.84;71.71;97866.06;4897778;29;20035;-72
2021/05/11 09:27:37;;;;;;;7.00;6.15;;;;;;;15.84;70.50;97886.97;4896134;29;20464;-72
2021/05/11 09:32:57;;;;;;;7.35;5.57;;;;;;;16.31;68.72;97887.00;4897141;29;20032;-71
2021/05/11 10:36:24;;;;;;;4.55;4.03;;;;;;;15.58;71.35;97854.38;4914201;29;20078;-72
2021/05/11 10:48:21;;;;;;;11.60;4.90;;;;;;;17.39;64.51;97845.00;4923106;29;21381;-78
2021/05/11 10:50:58;;;;;;;5.25;4.40;;;;;;;17.44;63.23;97850.81;4915229;29;20064;-78
2021/05/11 10:53:40;;;;;;;10.43;3.75;;;;;;;17.40;64.07;97865.84;4918772;29;20504;-77
2021/05/11 10:56:18;;;;;;;7.65;4.95;;;;;;;17.11;65.11;97866.75;4908590;29;20035;-74
2021/05/11 10:59:11;;;;;;;9.63;6.22;;;;;;;17.30;64.95;97867.34;4927340;29;20036;-76
2021/05/11 11:01:37;;;;;;;9.65;5.07;;;;;;;17.24;64.79;97862.47;4925484;29;20055;-73
2021/05/11 11:04:13;;;;;;;6.60;4.70;;;;;;;17.48;63.68;97860.16;4925435;29;20539;-74
2021/05/11 11:06:57;;;;;;;5.97;4.53;;;;;;;17.11;64.78;97862.34;4926349;29;20031;-73
2021/05/11 11:09:28;;;;;;;9.43;5.10;;;;;;;17.23;64.47;97863.41;4923020;29;20102;-73
2021/05/11 11:11:54;;;;;;;10.40;5.97;;;;;;;17.00;66.51;97849.06;4905638;29;20036;-75
2021/05/11 11:14:20;;;;;;;5.63;4.70;;;;;;;17.36;64.55;97860.91;4908417;29;20041;-76
2021/05/11 11:16:46;;;;;;;8.95;5.50;;;;;;;17.25;64.65;97858.06;4925487;29;20036;-76
2021/05/11 11:19:12;;;;;;;4.63;4.10;;;;;;;17.35;64.62;97859.22;4923540;29;20047;-75
2021/05/11 11:24:12;;;;;;;6.35;3.70;;;;;;;17.25;64.75;97848.44;4923634;29;20031;-75
2021/05/11 11:26:40;;;;;;;11.13;5.32;;;;;;;17.04;65.90;97841.88;4905790;29;20523;-74
2021/05/11 11:29:12;;;;;;;6.72;4.72;;;;;;;16.76;66.82;97850.50;4922317;29;20031;-73
2021/05/11 11:31:39;;;;;;;8.02;4.43;;;;;;;17.23;65.07;97849.50;4923954;29;20047;-76
2021/05/11 11:34:19;;;;;;;6.32;4.45;;;;;;;17.06;65.02;97859.16;4907053;29;20059;-76
2021/05/11 11:36:59;;;;;;;5.63;4.75;;;;;;;17.00;66.17;97869.16;4907076;29;20051;-76
2021/05/11 11:39:32;;;;;;;5.65;4.93;;;;;;;17.32;65.07;97869.88;4926573;29;20485;-76
2021/05/11 11:42:03;;;;;;;5.95;4.95;;;;;;;17.10;65.49;97876.38;4926566;29;20113;-76
2021/05/11 11:44:33;;;;;;;7.10;5.18;;;;;;;17.53;64.92;97881.69;4908368;29;20035;-78
2021/05/11 11:47:00;;;;;;;5.28;4.78;;;;;;;17.47;65.26;97890.75;4927284;29;20063;-75
2021/05/11 11:49:35;;;;;;;5.95;4.90;;;;;;;17.79;62.65;97887.97;4920338;29;20558;-75
2021/05/11 11:52:09;;;;;;;5.63;4.45;;;;;;;17.66;63.88;97885.25;4926804;29;20036;-73
2021/05/11 11:59:35;;;;;;;8.20;5.20;;;;;;;17.57;64.51;97888.41;4925338;29;20043;-78
2021/05/11 12:02:03;;;;;;;4.85;4.35;;;;;;;17.73;63.74;97891.81;4924937;29;20027;-78
2021/05/11 12:04:30;;;;;;;5.88;4.70;;;;;;;17.33;64.71;97897.75;4921376;29;20078;-75
2021/05/11 12:07:03;;;;;;;6.93;4.95;;;;;;;17.56;65.09;97899.00;4925532;29;20031;-77
2021/05/11 12:09:28;;;;;;;6.90;4.45;;;;;;;17.82;64.59;97895.66;4926895;29;20031;-79
2021/05/11 12:11:54;;;;;;;6.47;4.75;;;;;;;18.10;63.82;97889.53;4907084;29;20043;-76
2021/05/11 12:14:19;;;;;;;5.13;4.65;;;;;;;18.11;62.53;97890.38;4921508;29;20100;-75
2021/05/11 12:16:47;;;;;;;5.05;4.18;;;;;;;18.02;63.64;97894.41;4923694;29;20485;-74
2021/05/11 12:19:20;;;;;;;5.50;4.82;;;;;;;17.92;63.89;97886.28;4906726;29;20091;-73
2021/05/11 12:22:00;;;;;;;8.27;5.03;;;;;;;17.89;63.51;97880.38;4907664;29;20027;-73
2021/05/11 12:24:34;;;;;;;5.40;4.90;;;;;;;18.17;63.19;97875.09;4904833;29;20036;-74
2021/05/11 12:27:19;;;;;;;6.13;4.93;;;;;;;18.83;61.56;97872.66;4927935;29;20118;-77
2021/05/11 12:30:17;;;;;;;4.20;3.85;;;;;;;19.27;60.37;97872.31;4927822;29;20481;-79
2021/05/11 12:32:43;;;;;;;5.18;4.68;;;;;;;19.17;59.80;97879.97;4874341;29;20052;-79
2021/05/11 12:35:09;;;;;;;5.18;4.47;;;;;;;18.58;61.22;97886.53;4903822;29;20043;-79
2021/05/11 12:37:52;;;;;;;7.10;4.78;;;;;;;18.49;61.67;97891.41;4923756;29;20066;-79
2021/05/11 12:40:32;;;;;;;7.25;6.55;;;;;;;18.04;62.71;97895.19;4925182;29;20032;-79
2021/05/11 12:43:02;;;;;;;10.27;6.43;;;;;;;18.10;63.45;97900.03;4923513;29;20031;-79
2021/05/11 12:45:29;;;;;;;;;;;;;;;17.76;64.19;97906.53;4907907;29;20165;-79
2021/05/11 12:48:00;;;;;;;13.55;8.75;;;;;;;17.94;63.93;97904.56;4922782;29;20415;-79
2021/05/11 12:50:29;;;;;;;13.40;8.45;;;;;;;17.85;64.25;97894.63;4926122;29;20074;-79
2021/05/11 12:52:58;;;;;;;11.65;8.63;;;;;;;18.21;63.11;97896.72;4922866;29;20024;-79
2021/05/11 12:56:12;;;;;;;10.10;9.07;;;;;;;18.01;64.09;97887.50;4922920;29;20056;-75
2021/05/11 13:01:30;;;;;;;;;;;;;;;18.77;61.90;97888.81;4925282;29;20039;-75
2021/05/11 13:33:19;;;;;;;5.30;4.80;;;;;;;16.53;72.60;97943.31;4925021;29;20032;-77
2021/05/11 13:35:44;;;;;;;8.00;5.60;;;;;;;16.73;70.72;97950.06;4922784;29;20556;-74
2021/05/11 13:38:10;;;;;;;8.15;6.65;;;;;;;16.50;70.61;97948.72;4922112;29;20114;-75
2021/05/11 13:40:35;;;;;;;7.93;7.13;;;;;;;16.53;71.33;97952.00;4905853;29;20441;-77
2021/05/11 13:43:01;;;;;;;11.18;8.73;;;;;;;15.96;75.89;97956.88;4923338;29;20035;-79
2021/05/11 13:45:27;;;;;;;10.43;9.30;;;;;;;15.94;75.58;97956.09;4923154;29;20059;-77
2021/05/11 13:48:06;;;;;;;11.52;9.75;;;;;;;15.93;76.55;97959.63;4920215;29;20040;-75
2021/05/11 13:53:16;;;;;;;11.32;9.70;;;;;;;15.57;76.86;97968.44;4923120;29;20054;-76
2021/05/11 14:03:44;;;;;;;9.30;8.07;;;;;;;14.97;80.97;97973.16;4923824;29;20588;-80
2021/05/11 14:06:11;;;;;;;9.10;7.07;;;;;;;15.01;82.22;97968.66;4925921;29;20118;-79
2021/05/11 14:08:37;;;;;;;21.02;7.82;;;;;;;14.94;83.65;97962.91;4924680;29;20035;-79
2021/05/11 14:11:02;;;;;;;7.68;6.97;;;;;;;15.11;82.60;97965.50;4906285;29;20038;-79
2021/05/11 14:13:28;;;;;;;10.70;7.00;;;;;;;15.11;82.45;97970.72;4907312;29;20019;-80
2021/05/11 14:15:54;;;;;;;9.18;6.85;;;;;;;14.84;82.32;97972.06;4907543;29;20032;-78
2021/05/11 14:18:19;;;;;;;7.78;7.00;;;;;;;14.73;84.25;97974.34;4877940;29;20027;-79
2021/05/11 14:20:45;;;;;;;7.70;6.85;;;;;;;14.73;82.69;97979.56;4892951;29;20155;-78
2021/05/11 14:23:10;;;;;;;7.75;6.95;;;;;;;14.70;83.72;97980.56;4903152;29;20407;-74
2021/05/11 14:25:36;;;;;;;7.90;7.10;;;;;;;14.69;84.16;97976.25;4902377;29;20382;-77
2021/05/11 14:28:01;;;;;;;7.70;7.00;;;;;;;14.61;84.37;97979.22;4923099;29;20040;-78
2021/05/11 14:30:27;;;;;;;8.05;6.57;;;;;;;14.56;84.47;97973.38;4927046;29;20102;-74
2021/05/11 14:32:52;;;;;;;7.88;7.10;;;;;;;14.43;83.65;97974.00;4926842;29;21042;-77
2021/05/11 14:35:17;;;;;;;7.47;6.57;;;;;;;14.36;85.40;97970.84;4927945;29;20107;-74
2021/05/11 14:37:43;;;;;;;8.05;6.07;;;;;;;14.31;86.20;97957.16;4927079;29;20484;-79
2021/05/11 14:40:09;;;;;;;9.40;7.30;;;;;;;14.23;87.56;97961.88;4910752;29;20036;-74
2021/05/11 14:42:34;;;;;;;8.05;7.22;;;;;;;14.23;87.41;97952.31;4927283;29;20024;-75
2021/05/11 14:45:00;;;;;;;11.07;7.10;;;;;;;14.42;86.61;97949.69;4924356;29;20063;-76
2021/05/11 14:47:26;;;;;;;9.55;8.55;;;;;;;14.46;85.48;97947.81;4924148;29;20071;-75
2021/05/11 14:49:52;;;;;;;4.65;4.25;;;;;;;14.32;85.27;97956.25;4925261;29;20114;-79
2021/05/11 14:52:18;;;;;;;7.68;4.50;;;;;;;14.36;85.67;97957.81;4928865;29;20028;-73
2021/05/11 14:54:43;;;;;;;5.40;4.90;;;;;;;14.23;85.80;97965.34;4924405;29;21267;-74
2021/05/11 14:57:08;;;;;;;5.60;5.10;;;;;;;14.22;87.11;97962.81;4906867;29;20027;-75
2021/05/11 14:59:34;;;;;;;4.88;4.38;;;;;;;14.17;86.62;97965.63;4925626;29;20036;-77
2021/05/11 15:01:59;;;;;;;7.45;4.57;;;;;;;14.11;86.17;97955.47;4926468;29;20477;-77
2021/05/11 15:04:25;;;;;;;6.47;4.55;;;;;;;14.18;87.10;97962.09;4926143;29;20088;-79
2021/05/11 15:06:51;;;;;;;5.05;4.28;;;;;;;14.24;86.72;97960.97;4926196;29;20034;-75
2021/05/11 15:09:16;;;;;;;6.30;4.43;;;;;;;14.15;86.98;97973.50;4926283;29;20039;-79
2021/05/11 15:11:42;;;;;;;5.88;3.95;;;;;;;14.23;85.94;97969.72;4927618;29;20031;-79
2021/05/11 15:14:07;;;;;;;5.22;4.65;;;;;;;14.19;86.59;97973.38;4924635;29;20071;-80
2021/05/11 15:16:38;;;;;;;6.18;3.75;;;;;;;14.11;86.53;97966.72;4922607;29;20110;-79
2021/05/11 15:19:04;;;;;;;4.22;3.83;;;;;;;14.02;86.59;97982.78;4910091;29;20040;-79
2021/05/11 15:21:30;;;;;;;6.43;4.00;;;;;;;14.02;87.05;97987.13;4926424;29;20020;-79
2021/05/11 15:23:56;;;;;;;4.80;4.15;;;;;;;13.91;88.00;97985.00;4923332;29;20035;-74
2021/05/11 15:26:23;;;;;;;7.95;3.92;;;;;;;13.99;89.22;97993.34;4922588;29;20490;-74
2021/05/11 15:28:48;;;;;;;3.92;3.63;;;;;;;13.90;89.91;97998.94;4921158;29;20041;-74
2021/05/11 15:31:14;;;;;;;6.30;3.75;;;;;;;14.12;89.76;97999.69;4907994;29;21010;-80
2021/05/11 15:33:39;;;;;;;15.38;8.85;;;;;;;13.91;91.16;97990.22;4924344;29;20131;-74
2021/05/11 15:36:05;;;;;;;16.55;11.95;;;;;;;13.88;89.05;98001.63;4926244;29;20035;-79
2021/05/11 15:38:31;;;;;;;6.00;5.40;;;;;;;13.76;89.80;98002.16;4914202;29;20466;-79
2021/05/11 15:40:57;;;;;;;5.82;4.43;;;;;;;13.82;90.13;98003.63;4921979;29;20059;-79
2021/05/11 15:43:23;;;;;;;5.85;3.55;;;;;;;13.69;89.90;98010.31;4923870;29;20032;-79
2021/05/11 15:45:49;;;;;;;5.50;3.30;;;;;;;13.70;90.92;98020.66;4924019;29;20431;-79
2021/05/11 15:48:14;;;;;;;4.90;2.80;;;;;;;13.59;91.74;98018.50;4926677;29;20039;-79
2021/05/11 15:50:45;;;;;;;3.97;2.28;;;;;;;13.35;90.29;98027.34;4922384;29;20028;-79
2021/05/11 15:53:13;;;;;;;2.85;2.65;;;;;;;13.25;91.97;98039.03;4925093;29;20028;-74
2021/05/11 15:55:40;;;;;;;4.22;2.55;;;;;;;13.23;92.89;98033.03;4922178;29;20118;-74
2021/05/11 15:58:08;;;;;;;3.83;2.38;;;;;;;13.30;93.61;98042.28;4906980;29;20050;-74
2021/05/11 16:00:39;;;;;;;4.03;2.67;;;;;;;13.25;93.52;98041.63;4909754;29;20024;-74
2021/05/11 16:03:04;;;;;;;4.68;3.25;;;;;;;13.33;94.29;98042.16;4926702;29;20058;-75
2021/05/11 16:05:36;;;;;;;3.15;2.72;;;;;;;13.30;93.40;98047.50;4927139;29;20031;-78
2021/05/11 16:08:06;;;;;;;2.78;2.58;;;;;;;13.29;94.61;98048.38;4926995;29;20187;-79
2021/05/11 16:10:32;;;;;;;3.88;2.55;;;;;;;13.23;94.09;98051.25;4924269;29;20469;-75
2021/05/11 16:12:58;;;;;;;3.53;2.92;;;;;;;13.11;94.08;98050.81;4923732;29;20054;-80
2021/05/11 16:15:24;;;;;;;3.90;2.90;;;;;;;13.30;94.15;98060.50;4916259;29;20709;-81
2021/05/11 16:17:49;;;;;;;3.90;2.50;;;;;;;13.30;94.55;98063.97;4898378;29;20032;-81
2021/05/11 16:20:16;;;;;;;5.10;2.47;;;;;;;13.35;94.43;98062.00;4927853;29;20038;-81
2021/05/11 16:22:42;;;;;;;2.97;2.63;;;;;;;13.45;94.42;98065.09;4923164;29;20181;-75
2021/05/11 16:25:09;;;;;;;6.45;3.42;;;;;;;13.40;94.03;98063.59;4908273;29;20485;-76
2021/05/11 16:27:35;;;;;;;4.15;2.60;;;;;;;13.40;94.52;98069.63;4905130;29;20035;-75
2021/05/11 16:30:01;;;;;;;3.83;2.72;;;;;;;13.35;94.66;98079.38;4950479;23;20103;-69
2021/05/11 16:32:26;;;;;;;4.85;2.70;;;;;;;13.22;94.42;98078.16;4908839;29;20036;-70
2021/05/11 16:34:51;;;;;;;4.47;2.40;;;;;;;13.06;94.09;98089.16;4908638;29;20113;-70
2021/05/11 16:37:17;;;;;;;5.15;3.50;;;;;;;13.11;95.54;98088.97;4908486;29;20028;-70
2021/05/11 16:39:42;;;;;;;5.00;2.55;;;;;;;12.90;95.60;98095.00;4900327;29;20028;-71
2021/05/11 16:42:08;;;;;;;5.63;2.70;;;;;;;12.86;96.35;98092.53;4896834;29;20065;-71
2021/05/11 16:44:37;;;;;;;4.07;3.03;;;;;;;12.97;96.17;98093.88;4896652;29;20031;-70
2021/05/11 16:47:04;;;;;;;6.07;3.58;;;;;;;13.05;96.67;98104.78;4896418;29;20040;-70
2021/05/11 16:49:29;;;;;;;6.32;3.30;;;;;;;13.01;96.35;98104.09;4896506;29;20477;-70
2021/05/11 16:51:55;;;;;;;3.65;2.25;;;;;;;13.21;95.92;98102.47;4896547;29;20034;-71
2021/05/11 16:54:21;;;;;;;3.63;2.30;;;;;;;13.13;95.37;98111.41;4896747;29;20060;-71
2021/05/11 16:56:46;;;;;;;2.42;2.03;;;;;;;13.23;95.50;98111.06;4896777;29;20064;-71
2021/05/11 16:59:12;;;;;;;15.48;9.18;;;;;;;13.18;95.44;98112.97;4896399;29;20029;-70
2021/05/11 17:01:38;;;;;;;2.33;2.13;;;;;;;13.10;95.22;98126.28;4896699;29;20028;-70
2021/05/11 17:04:04;;;;;;;9.25;2.83;;;;;;;13.06;95.56;98125.56;4896464;29;20712;-70
2021/05/11 17:06:35;;;;;;;2.17;1.70;;;;;;;13.05;95.42;98129.06;4896359;29;20036;-71
2021/05/11 17:09:04;;;;;;;1.65;1.55;;;;;;;12.89;94.89;98121.91;4896276;29;20410;-70
2021/05/11 17:11:32;;;;;;;1.40;1.30;;;;;;;12.79;94.76;98131.81;4879358;29;20044;-70
2021/05/11 17:13:58;;;;;;;1.30;1.20;;;;;;;12.65;94.24;98134.06;4896033;29;20114;-71
2021/05/11 17:16:24;;;;;;;3.55;1.70;;;;;;;12.71;94.91;98139.03;4896078;29;20410;-70
2021/05/11 17:18:49;;;;;;;1.60;1.50;;;;;;;12.70;96.31;98132.13;4896107;29;20032;-73
2021/05/11 17:21:15;;;;;;;3.88;1.50;;;;;;;12.81;95.62;98130.84;4896153;29;20114;-70
2021/05/11 17:23:40;;;;;;;1.92;1.60;;;;;;;12.83;95.23;98139.44;4896152;29;20039;-72
2021/05/11 17:26:05;;;;;;;3.33;2.10;;;;;;;12.88;95.59;98141.84;4895775;29;20107;-72
2021/05/11 17:28:36;;;;;;;31.23;19.25;;;;;;;12.84;95.38;98140.28;4895827;29;20051;-72
2021/05/11 17:31:06;;;;;;;2.45;2.20;;;;;;;12.90;95.59;98142.63;4896053;29;20046;-72
2021/05/11 17:33:32;;;;;;;2.30;1.92;;;;;;;12.77;94.97;98149.22;4895893;29;20096;-71
2021/05/11 17:35:58;;;;;;;1.80;1.70;;;;;;;12.85;94.38;98152.38;4896001;29;20043;-71
2021/05/11 17:38:28;;;;;;;1.75;1.60;;;;;;;12.82;94.68;98148.13;4895847;29;20072;-72
2021/05/11 17:40:55;;;;;;;2.85;1.67;;;;;;;12.73;94.74;98147.63;4895703;29;20146;-70
2021/05/11 17:43:21;;;;;;;2.83;1.38;;;;;;;12.67;94.17;98147.84;4895926;29;20099;-73
2021/05/11 17:45:51;;;;;;;2.22;1.67;;;;;;;12.64;94.71;98154.00;4895763;29;20723;-71
2021/05/11 17:48:17;;;;;;;2.60;1.15;;;;;;;12.69;95.38;98159.03;4895452;29;20032;-71
2021/05/11 17:50:42;;;;;;;1.65;1.02;;;;;;;12.65;96.16;98160.06;4895704;29;20397;-71
2021/05/11 17:53:07;;;;;;;3.10;1.30;;;;;;;12.62;95.06;98161.03;4895608;29;20077;-71
2021/05/11 17:55:34;;;;;;;2.45;1.13;;;;;;;12.60;95.21;98158.47;4895716;29;20111;-71
2021/05/11 17:58:00;;;;;;;1.55;1.40;;;;;;;12.73;96.04;98168.44;4878715;29;20043;-70
2021/05/11 18:00:26;;;;;;;5.72;1.33;;;;;;;12.66;95.69;98165.19;4895708;29;20028;-71
2021/05/11 18:02:51;;;;;;;4.38;1.70;;;;;;;12.53;96.44;98170.00;4895677;29;20075;-70
2021/05/11 18:05:17;;;;;;;2.40;1.83;;;;;;;12.54;97.35;98174.28;4895328;29;20024;-70
2021/05/11 18:07:43;;;;;;;2.28;1.55;;;;;;;12.58;96.70;98173.28;4895295;29;20032;-70
2021/05/11 18:10:10;;;;;;;4.40;3.35;;;;;;;12.39;97.80;98177.44;4895734;29;20124;-70
2021/05/11 18:12:35;;;;;;;2.67;2.22;;;;;;;12.61;97.71;98180.09;4895230;29;20084;-70
2021/05/11 18:15:01;;;;;;;1.90;1.63;;;;;;;12.52;97.60;98176.09;4894591;29;20032;-70
2021/05/11 18:17:26;;;;;;;5.47;2.13;;;;;;;12.57;98.08;98178.50;4895312;29;20033;-70
2021/05/11 18:19:52;;;;;;;4.32;1.90;;;;;;;12.53;95.86;98177.78;4895578;29;20455;-70
2021/05/11 18:22:17;;;;;;;5.47;3.35;;;;;;;12.40;97.92;98181.72;4895479;29;20112;-70
2021/05/11 18:24:43;;;;;;;5.20;3.15;;;;;;;12.45;97.71;98186.75;4895478;29;20028;-70
2021/05/11 18:27:08;;;;;;;7.45;2.95;;;;;;;12.71;95.95;98185.81;4895291;29;20032;-70
2021/05/11 18:29:34;;;;;;;7.20;4.55;;;;;;;12.58;96.05;98194.06;4895517;29;20033;-70
2021/05/11 18:32:00;;;;;;;7.55;5.13;;;;;;;12.50;96.91;98188.28;4895265;29;20124;-70
2021/05/11 18:34:26;;;;;;;5.75;4.00;;;;;;;12.49;97.57;98194.38;4895352;29;20032;-70
2021/05/11 18:39:24;;;;;;;36.88;19.42;;;;;;;12.28;96.72;98189.91;4895679;29;20031;-70
2021/05/11 18:41:50;;;;;;;4.40;3.45;;;;;;;12.15;98.56;98191.25;4895518;29;20107;-70
2021/05/11 18:44:15;;;;;;;4.38;3.00;;;;;;;12.21;98.81;98191.03;4895203;29;20025;-70
2021/05/11 18:46:42;;;;;;;26.05;18.85;;;;;;;12.11;98.57;98194.84;4894239;29;20539;-71
2021/05/11 18:49:08;;;;;;;4.97;2.75;;;;;;;12.25;98.58;98195.25;4895275;29;20406;-71
2021/05/11 18:51:33;;;;;;;27.50;15.38;;;;;;;12.12;98.79;98202.59;4895125;29;20062;-71
2021/05/11 18:53:58;;;;;;;14.05;10.25;;;;;;;12.12;99.19;98201.75;4895048;29;21439;-71
2021/05/11 18:56:27;;;;;;;3.80;3.17;;;;;;;12.13;99.51;98198.25;4895162;29;20035;-70
2021/05/11 18:58:54;;;;;;;3.75;2.70;;;;;;;12.11;99.36;98195.69;4893947;29;20028;-71
2021/05/11 19:01:21;;;;;;;5.07;3.30;;;;;;;12.09;99.97;98197.50;4895170;29;20470;-70
2021/05/11 19:03:47;;;;;;;2.67;2.40;;;;;;;12.11;99.93;98200.03;4895483;29;20064;-70
2021/05/11 19:06:12;;;;;;;51.75;27.67;;;;;;;12.15;98.92;98202.50;4862654;29;20051;-70
2021/05/11 19:08:38;;;;;;;11.88;6.75;;;;;;;12.21;98.69;98206.63;4895429;29;20031;-69
2021/05/11 19:11:03;;;;;;;3.08;2.72;;;;;;;12.12;98.71;98212.13;4895175;29;20667;-69
2021/05/11 19:13:28;;;;;;;3.50;2.88;;;;;;;12.00;99.63;98222.03;4895067;29;20398;-68
2021/05/11 19:15:54;;;;;;;4.80;3.13;;;;;;;11.93;99.87;98217.91;4895377;29;20032;-70